sensor_id;sensor_type;location;lat;lon;timestamp;P1;durP1;ratioP1;P2;durP2;ratioP2
16387;SDS011;8303;53.446;9.988;2023-01-10T05:47:39;19.03;;;7.63;;
16387;SDS011;8303;53.446;9.988;2023-01-10T05:50:06;22.17;;;8.10;;
16387;SDS011;8303;53.446;9.988;2023-01-10T05:52:34;27.83;;;9.67;;
16387;SDS011;8303;53.446;9.988;2023-01-10T05:55:01;26.50;;;9.70;;
16387;SDS011;8303;53.446;9.988;2023-01-10T05:57:28;30.83;;;10.07;;
16387;SDS011;8303;53.446;9.988;2023-01-10T05:59:56;24.10;;;12.00;;
16387;SDS011;8303;53.446;9.988;2023-01-10T06:02:22;29.17;;;11.70;;
16387;SDS011;8303;53.446;9.988;2023-01-10T06:04:51;24.47;;;11.27;;
16387;SDS011;8303;53.446;9.988;2023-01-10T06:07:19;31.93;;;11.53;;
16387;SDS011;8303;53.446;9.988;2023-01-10T06:09:46;25.10;;;10.53;;
16387;SDS011;8303;53.446;9.988;2023-01-10T06:12:15;25.27;;;11.80;;
16387;SDS011;8303;53.446;9.988;2023-01-10T06:14:42;30.13;;;11.57;;
16387;SDS011;8303;53.446;9.988;2023-01-10T06:17:09;18.50;;;10.40;;
16387;SDS011;8303;53.446;9.988;2023-01-10T06:19:36;25.13;;;9.57;;
16387;SDS011;8303;53.446;9.988;2023-01-10T06:22:04;23.80;;;9.67;;
16387;SDS011;8303;53.446;9.988;2023-01-10T06:24:31;24.60;;;9.43;;
16387;SDS011;8303;53.446;9.988;2023-01-10T06:26:58;28.30;;;8.80;;
16387;SDS011;8303;53.446;9.988;2023-01-10T06:29:25;19.60;;;8.17;;
16387;SDS011;8303;53.446;9.988;2023-01-10T06:31:52;24.57;;;8.13;;
16387;SDS011;8303;53.446;9.988;2023-01-10T06:34:19;27.50;;;8.43;;
16387;SDS011;8303;53.446;9.988;2023-01-10T06:36:45;17.77;;;7.63;;
16387;SDS011;8303;53.446;9.988;2023-01-10T06:39:14;16.77;;;7.83;;
16387;SDS011;8303;53.446;9.988;2023-01-10T06:41:41;23.93;;;7.63;;
16387;SDS011;8303;53.446;9.988;2023-01-10T06:44:08;23.30;;;8.20;;
16387;SDS011;8303;53.446;9.988;2023-01-10T06:46:34;29.13;;;8.57;;
16387;SDS011;8303;53.446;9.988;2023-01-10T06:49:01;19.47;;;7.93;;
16387;SDS011;8303;53.446;9.988;2023-01-10T06:51:28;21.57;;;8.30;;
16387;SDS011;8303;53.446;9.988;2023-01-10T06:53:55;18.87;;;7.27;;
16387;SDS011;8303;53.446;9.988;2023-01-10T06:56:23;19.13;;;7.40;;
16387;SDS011;8303;53.446;9.988;2023-01-10T06:58:50;21.57;;;6.93;;
16387;SDS011;8303;53.446;9.988;2023-01-10T07:01:19;20.27;;;6.93;;
16387;SDS011;8303;53.446;9.988;2023-01-10T07:03:46;19.60;;;7.37;;
16387;SDS011;8303;53.446;9.988;2023-01-10T07:06:13;22.77;;;7.93;;
16387;SDS011;8303;53.446;9.988;2023-01-10T07:08:42;19.23;;;7.87;;
16387;SDS011;8303;53.446;9.988;2023-01-10T07:11:11;26.57;;;8.00;;
16387;SDS011;8303;53.446;9.988;2023-01-10T07:13:39;16.50;;;8.00;;
16387;SDS011;8303;53.446;9.988;2023-01-10T07:16:07;25.77;;;8.73;;
16387;SDS011;8303;53.446;9.988;2023-01-10T07:18:36;23.83;;;9.67;;
16387;SDS011;8303;53.446;9.988;2023-01-10T07:21:04;20.70;;;9.47;;
16387;SDS011;8303;53.446;9.988;2023-01-10T07:23:35;23.90;;;9.07;;
16387;SDS011;8303;53.446;9.988;2023-01-10T07:26:07;25.43;;;9.17;;
16387;SDS011;8303;53.446;9.988;2023-01-10T07:28:36;23.07;;;8.90;;
16387;SDS011;8303;53.446;9.988;2023-01-10T07:31:04;26.77;;;9.13;;
16387;SDS011;8303;53.446;9.988;2023-01-10T07:33:31;27.47;;;8.37;;
16387;SDS011;8303;53.446;9.988;2023-01-10T07:35:58;23.10;;;8.07;;
16387;SDS011;8303;53.446;9.988;2023-01-10T07:38:26;28.03;;;8.07;;
16387;SDS011;8303;53.446;9.988;2023-01-10T07:40:53;21.73;;;8.20;;
16387;SDS011;8303;53.446;9.988;2023-01-10T07:43:20;20.47;;;7.43;;
16387;SDS011;8303;53.446;9.988;2023-01-10T07:45:47;23.53;;;7.97;;
16387;SDS011;8303;53.446;9.988;2023-01-10T07:48:15;23.43;;;8.37;;
16387;SDS011;8303;53.446;9.988;2023-01-10T07:50:42;22.67;;;7.63;;
16387;SDS011;8303;53.446;9.988;2023-01-10T07:53:09;22.37;;;6.87;;
16387;SDS011;8303;53.446;9.988;2023-01-10T07:55:36;17.10;;;7.20;;
16387;SDS011;8303;53.446;9.988;2023-01-10T07:58:04;25.93;;;8.37;;
16387;SDS011;8303;53.446;9.988;2023-01-10T08:00:32;20.43;;;8.13;;
16387;SDS011;8303;53.446;9.988;2023-01-10T08:02:59;20.20;;;8.50;;
16387;SDS011;8303;53.446;9.988;2023-01-10T08:05:28;25.20;;;7.33;;
16387;SDS011;8303;53.446;9.988;2023-01-10T08:07:55;20.77;;;6.97;;
16387;SDS011;8303;53.446;9.988;2023-01-10T08:10:24;20.43;;;7.37;;
16387;SDS011;8303;53.446;9.988;2023-01-10T08:12:51;17.73;;;8.03;;
16387;SDS011;8303;53.446;9.988;2023-01-10T08:15:18;16.60;;;7.67;;
16387;SDS011;8303;53.446;9.988;2023-01-10T08:17:45;18.83;;;7.50;;
16387;SDS011;8303;53.446;9.988;2023-01-10T08:20:12;26.27;;;7.43;;
16387;SDS011;8303;53.446;9.988;2023-01-10T08:22:40;17.53;;;7.23;;
16387;SDS011;8303;53.446;9.988;2023-01-10T08:25:07;18.97;;;7.03;;
16387;SDS011;8303;53.446;9.988;2023-01-10T08:27:35;23.37;;;8.50;;
16387;SDS011;8303;53.446;9.988;2023-01-10T08:30:02;18.33;;;8.20;;
16387;SDS011;8303;53.446;9.988;2023-01-10T08:32:30;19.27;;;8.40;;
16387;SDS011;8303;53.446;9.988;2023-01-10T08:34:56;19.00;;;8.23;;
16387;SDS011;8303;53.446;9.988;2023-01-10T08:37:23;25.67;;;8.97;;
16387;SDS011;8303;53.446;9.988;2023-01-10T08:39:52;23.60;;;10.07;;
16387;SDS011;8303;53.446;9.988;2023-01-10T08:42:18;21.40;;;9.00;;
16387;SDS011;8303;53.446;9.988;2023-01-10T08:44:45;18.37;;;8.13;;
16387;SDS011;8303;53.446;9.988;2023-01-10T08:47:12;28.13;;;9.57;;
16387;SDS011;8303;53.446;9.988;2023-01-10T08:49:39;19.20;;;11.00;;
16387;SDS011;8303;53.446;9.988;2023-01-10T08:52:06;21.87;;;8.93;;
16387;SDS011;8303;53.446;9.988;2023-01-10T08:54:33;20.43;;;8.63;;
16387;SDS011;8303;53.446;9.988;2023-01-10T08:57:01;22.13;;;8.47;;
16387;SDS011;8303;53.446;9.988;2023-01-10T08:59:28;18.50;;;8.37;;
16387;SDS011;8303;53.446;9.988;2023-01-10T09:01:55;21.80;;;8.97;;
16387;SDS011;8303;53.446;9.988;2023-01-10T09:04:24;18.13;;;8.13;;
16387;SDS011;8303;53.446;9.988;2023-01-10T09:06:52;38.53;;;10.30;;
16387;SDS011;8303;53.446;9.988;2023-01-10T09:09:19;22.67;;;8.90;;
16387;SDS011;8303;53.446;9.988;2023-01-10T09:11:46;19.00;;;8.13;;
16387;SDS011;8303;53.446;9.988;2023-01-10T09:14:15;25.37;;;9.00;;
16387;SDS011;8303;53.446;9.988;2023-01-10T09:16:41;22.57;;;8.77;;
16387;SDS011;8303;53.446;9.988;2023-01-10T09:19:08;20.57;;;8.27;;
16387;SDS011;8303;53.446;9.988;2023-01-10T09:21:36;24.40;;;9.30;;
16387;SDS011;8303;53.446;9.988;2023-01-10T09:24:03;29.07;;;10.00;;
16387;SDS011;8303;53.446;9.988;2023-01-10T09:26:31;19.50;;;8.60;;
16387;SDS011;8303;53.446;9.988;2023-01-10T09:28:58;25.27;;;8.57;;
16387;SDS011;8303;53.446;9.988;2023-01-10T09:31:26;23.43;;;8.93;;
16387;SDS011;8303;53.446;9.988;2023-01-10T09:33:53;21.47;;;9.23;;
16387;SDS011;8303;53.446;9.988;2023-01-10T09:36:20;25.80;;;9.00;;
16387;SDS011;8303;53.446;9.988;2023-01-10T09:38:47;19.97;;;9.70;;
16387;SDS011;8303;53.446;9.988;2023-01-10T09:41:20;13.80;;;9.07;;
16387;SDS011;8303;53.446;9.988;2023-01-10T09:44:15;17.47;;;8.77;;
16387;SDS011;8303;53.446;9.988;2023-01-10T09:46:48;21.67;;;9.53;;
16387;SDS011;8303;53.446;9.988;2023-01-10T09:49:25;25.30;;;8.87;;
16387;SDS011;8303;53.446;9.988;2023-01-10T09:52:02;20.83;;;9.50;;
16387;SDS011;8303;53.446;9.988;2023-01-10T09:54:35;21.43;;;9.87;;
16387;SDS011;8303;53.446;9.988;2023-01-10T09:57:05;21.37;;;9.37;;
16387;SDS011;8303;53.446;9.988;2023-01-10T09:59:40;27.73;;;9.40;;
16387;SDS011;8303;53.446;9.988;2023-01-10T10:02:16;18.90;;;8.47;;
16387;SDS011;8303;53.446;9.988;2023-01-10T10:04:52;26.87;;;9.83;;
16387;SDS011;8303;53.446;9.988;2023-01-10T10:07:34;23.97;;;9.27;;
16387;SDS011;8303;53.446;9.988;2023-01-10T10:10:01;26.50;;;9.23;;
16387;SDS011;8303;53.446;9.988;2023-01-10T10:12:32;26.30;;;8.70;;
16387;SDS011;8303;53.446;9.988;2023-01-10T10:15:08;28.27;;;10.50;;
16387;SDS011;8303;53.446;9.988;2023-01-10T10:17:46;20.27;;;8.23;;
16387;SDS011;8303;53.446;9.988;2023-01-10T10:20:30;20.00;;;8.77;;
16387;SDS011;8303;53.446;9.988;2023-01-10T10:23:21;21.30;;;8.93;;
16387;SDS011;8303;53.446;9.988;2023-01-10T10:26:26;21.73;;;8.53;;
16387;SDS011;8303;53.446;9.988;2023-01-10T10:29:02;23.33;;;8.13;;
16387;SDS011;8303;53.446;9.988;2023-01-10T10:31:55;18.97;;;8.83;;
16387;SDS011;8303;53.446;9.988;2023-01-10T10:34:32;22.03;;;9.80;;
16387;SDS011;8303;53.446;9.988;2023-01-10T10:37:03;20.43;;;8.40;;
16387;SDS011;8303;53.446;9.988;2023-01-10T10:39:35;22.00;;;9.03;;
16387;SDS011;8303;53.446;9.988;2023-01-10T10:42:10;23.60;;;7.90;;
16387;SDS011;8303;53.446;9.988;2023-01-10T10:44:40;27.67;;;8.80;;
16387;SDS011;8303;53.446;9.988;2023-01-10T10:47:13;15.60;;;8.47;;
16387;SDS011;8303;53.446;9.988;2023-01-10T10:49:44;20.50;;;9.03;;
16387;SDS011;8303;53.446;9.988;2023-01-10T10:52:18;12.60;;;8.33;;
16387;SDS011;8303;53.446;9.988;2023-01-10T10:54:48;18.57;;;8.33;;
16387;SDS011;8303;53.446;9.988;2023-01-10T10:57:16;21.77;;;8.20;;
16387;SDS011;8303;53.446;9.988;2023-01-10T10:59:45;17.37;;;9.20;;
16387;SDS011;8303;53.446;9.988;2023-01-10T11:02:21;17.30;;;7.57;;
16387;SDS011;8303;53.446;9.988;2023-01-10T11:04:52;21.03;;;8.17;;
16387;SDS011;8303;53.446;9.988;2023-01-10T11:07:21;19.30;;;7.23;;
16387;SDS011;8303;53.446;9.988;2023-01-10T11:09:49;18.77;;;7.53;;
16387;SDS011;8303;53.446;9.988;2023-01-10T11:12:23;24.27;;;8.47;;
16387;SDS011;8303;53.446;9.988;2023-01-10T11:14:56;21.40;;;8.40;;
16387;SDS011;8303;53.446;9.988;2023-01-10T11:17:24;20.47;;;8.13;;
16387;SDS011;8303;53.446;9.988;2023-01-10T11:19:57;18.20;;;7.33;;
16387;SDS011;8303;53.446;9.988;2023-01-10T11:22:27;19.30;;;7.60;;
16387;SDS011;8303;53.446;9.988;2023-01-10T11:24:59;20.70;;;8.00;;
16387;SDS011;8303;53.446;9.988;2023-01-10T11:27:28;21.53;;;9.10;;
16387;SDS011;8303;53.446;9.988;2023-01-10T11:29:57;21.67;;;7.60;;
16387;SDS011;8303;53.446;9.988;2023-01-10T11:32:30;25.90;;;9.07;;
16387;SDS011;8303;53.446;9.988;2023-01-10T11:35:01;26.37;;;8.57;;
16387;SDS011;8303;53.446;9.988;2023-01-10T11:37:32;23.87;;;8.77;;
16387;SDS011;8303;53.446;9.988;2023-01-10T11:40:12;20.07;;;7.53;;
16387;SDS011;8303;53.446;9.988;2023-01-10T11:42:45;20.20;;;8.40;;
16387;SDS011;8303;53.446;9.988;2023-01-10T11:45:22;23.27;;;8.53;;
16387;SDS011;8303;53.446;9.988;2023-01-10T11:47:52;17.27;;;7.67;;
16387;SDS011;8303;53.446;9.988;2023-01-10T11:50:24;16.40;;;7.90;;
16387;SDS011;8303;53.446;9.988;2023-01-10T11:52:53;15.83;;;8.13;;
16387;SDS011;8303;53.446;9.988;2023-01-10T11:55:22;17.63;;;7.70;;
16387;SDS011;8303;53.446;9.988;2023-01-10T11:57:53;20.30;;;8.20;;
16387;SDS011;8303;53.446;9.988;2023-01-10T12:00:30;18.10;;;8.43;;
16387;SDS011;8303;53.446;9.988;2023-01-10T12:03:02;21.27;;;7.73;;
16387;SDS011;8303;53.446;9.988;2023-01-10T12:05:41;20.50;;;8.17;;
16387;SDS011;8303;53.446;9.988;2023-01-10T12:08:21;14.83;;;7.70;;
16387;SDS011;8303;53.446;9.988;2023-01-10T12:10:56;22.43;;;8.33;;
16387;SDS011;8303;53.446;9.988;2023-01-10T12:13:26;22.33;;;8.40;;
16387;SDS011;8303;53.446;9.988;2023-01-10T12:16:13;23.50;;;8.00;;
16387;SDS011;8303;53.446;9.988;2023-01-10T12:18:41;14.33;;;7.60;;
16387;SDS011;8303;53.446;9.988;2023-01-10T12:21:10;23.67;;;9.40;;
16387;SDS011;8303;53.446;9.988;2023-01-10T12:23:41;19.50;;;9.10;;
16387;SDS011;8303;53.446;9.988;2023-01-10T12:26:10;20.73;;;8.90;;
16387;SDS011;8303;53.446;9.988;2023-01-10T12:28:38;27.87;;;10.00;;
16387;SDS011;8303;53.446;9.988;2023-01-10T12:31:10;23.37;;;9.30;;
16387;SDS011;8303;53.446;9.988;2023-01-10T12:33:40;19.07;;;9.30;;
16387;SDS011;8303;53.446;9.988;2023-01-10T12:36:17;19.97;;;9.03;;
16387;SDS011;8303;53.446;9.988;2023-01-10T12:38:56;20.30;;;8.77;;
16387;SDS011;8303;53.446;9.988;2023-01-10T12:41:34;16.57;;;8.20;;
16387;SDS011;8303;53.446;9.988;2023-01-10T12:44:26;19.10;;;9.37;;
16387;SDS011;8303;53.446;9.988;2023-01-10T12:46:57;12.90;;;8.73;;
16387;SDS011;8303;53.446;9.988;2023-01-10T12:49:28;23.53;;;9.50;;
16387;SDS011;8303;53.446;9.988;2023-01-10T12:52:02;23.20;;;8.77;;
16387;SDS011;8303;53.446;9.988;2023-01-10T12:54:32;18.20;;;9.70;;
16387;SDS011;8303;53.446;9.988;2023-01-10T12:57:00;23.77;;;10.00;;
16387;SDS011;8303;53.446;9.988;2023-01-10T12:59:33;17.63;;;8.73;;
16387;SDS011;8303;53.446;9.988;2023-01-10T13:02:05;19.67;;;9.53;;
16387;SDS011;8303;53.446;9.988;2023-01-10T13:04:38;24.23;;;11.87;;
16387;SDS011;8303;53.446;9.988;2023-01-10T13:07:10;20.27;;;10.10;;
16387;SDS011;8303;53.446;9.988;2023-01-10T13:09:38;26.50;;;9.77;;
16387;SDS011;8303;53.446;9.988;2023-01-10T13:12:09;21.20;;;10.20;;
16387;SDS011;8303;53.446;9.988;2023-01-10T13:14:42;17.90;;;9.47;;
16387;SDS011;8303;53.446;9.988;2023-01-10T13:17:15;17.50;;;8.77;;
16387;SDS011;8303;53.446;9.988;2023-01-10T13:20:17;24.90;;;9.70;;
16387;SDS011;8303;53.446;9.988;2023-01-10T13:22:56;18.03;;;9.40;;
16387;SDS011;8303;53.446;9.988;2023-01-10T13:25:25;25.77;;;10.10;;
16387;SDS011;8303;53.446;9.988;2023-01-10T13:27:57;26.47;;;9.87;;
16387;SDS011;8303;53.446;9.988;2023-01-10T13:30:30;33.63;;;10.10;;
16387;SDS011;8303;53.446;9.988;2023-01-10T13:32:59;25.33;;;10.43;;
16387;SDS011;8303;53.446;9.988;2023-01-10T13:35:35;24.30;;;9.63;;
16387;SDS011;8303;53.446;9.988;2023-01-10T13:38:06;25.93;;;10.23;;
16387;SDS011;8303;53.446;9.988;2023-01-10T13:40:54;21.40;;;9.47;;
16387;SDS011;8303;53.446;9.988;2023-01-10T13:43:37;26.87;;;9.37;;
16387;SDS011;8303;53.446;9.988;2023-01-10T13:49:20;21.70;;;9.00;;
16387;SDS011;8303;53.446;9.988;2023-01-10T13:54:58;23.43;;;9.67;;
16387;SDS011;8303;53.446;9.988;2023-01-10T14:00:21;24.83;;;9.00;;
16387;SDS011;8303;53.446;9.988;2023-01-10T14:03:08;23.77;;;9.13;;
16387;SDS011;8303;53.446;9.988;2023-01-10T14:06:32;23.63;;;9.00;;
16387;SDS011;8303;53.446;9.988;2023-01-10T14:09:06;23.20;;;9.07;;
16387;SDS011;8303;53.446;9.988;2023-01-10T14:12:02;19.97;;;8.93;;
16387;SDS011;8303;53.446;9.988;2023-01-10T14:14:33;16.07;;;8.13;;
16387;SDS011;8303;53.446;9.988;2023-01-10T14:17:12;12.37;;;8.20;;
16387;SDS011;8303;53.446;9.988;2023-01-10T14:19:44;22.20;;;8.60;;
16387;SDS011;8303;53.446;9.988;2023-01-10T14:22:22;20.87;;;8.57;;
16387;SDS011;8303;53.446;9.988;2023-01-10T14:24:52;20.83;;;8.20;;
16387;SDS011;8303;53.446;9.988;2023-01-10T14:27:20;18.53;;;8.10;;
16387;SDS011;8303;53.446;9.988;2023-01-10T14:29:48;27.23;;;8.70;;
16387;SDS011;8303;53.446;9.988;2023-01-10T14:32:23;18.10;;;8.23;;
16387;SDS011;8303;53.446;9.988;2023-01-10T14:34:56;16.73;;;7.43;;
16387;SDS011;8303;53.446;9.988;2023-01-10T14:37:27;22.90;;;9.10;;
16387;SDS011;8303;53.446;9.988;2023-01-10T14:40:03;22.83;;;8.10;;
16387;SDS011;8303;53.446;9.988;2023-01-10T14:42:32;22.33;;;7.77;;
16387;SDS011;8303;53.446;9.988;2023-01-10T14:45:02;20.60;;;8.00;;
16387;SDS011;8303;53.446;9.988;2023-01-10T14:47:54;18.50;;;7.20;;
16387;SDS011;8303;53.446;9.988;2023-01-10T14:50:22;23.47;;;7.77;;
16387;SDS011;8303;53.446;9.988;2023-01-10T14:52:54;16.37;;;7.20;;
16387;SDS011;8303;53.446;9.988;2023-01-10T14:55:21;19.13;;;7.47;;
16387;SDS011;8303;53.446;9.988;2023-01-10T14:57:53;24.67;;;7.83;;
16387;SDS011;8303;53.446;9.988;2023-01-10T15:00:24;18.20;;;7.73;;
16387;SDS011;8303;53.446;9.988;2023-01-10T15:02:52;20.93;;;7.87;;
16387;SDS011;8303;53.446;9.988;2023-01-10T15:05:20;20.93;;;7.80;;
16387;SDS011;8303;53.446;9.988;2023-01-10T15:07:49;20.33;;;8.67;;
16387;SDS011;8303;53.446;9.988;2023-01-10T15:10:19;26.97;;;8.90;;
16387;SDS011;8303;53.446;9.988;2023-01-10T15:12:49;26.50;;;8.97;;
16387;SDS011;8303;53.446;9.988;2023-01-10T15:15:22;24.13;;;8.13;;
16387;SDS011;8303;53.446;9.988;2023-01-10T15:17:53;24.20;;;8.73;;
16387;SDS011;8303;53.446;9.988;2023-01-10T15:20:20;20.30;;;8.63;;
16387;SDS011;8303;53.446;9.988;2023-01-10T15:22:48;20.50;;;9.67;;
16387;SDS011;8303;53.446;9.988;2023-01-10T15:25:25;20.63;;;9.23;;
16387;SDS011;8303;53.446;9.988;2023-01-10T15:27:54;21.07;;;9.00;;
16387;SDS011;8303;53.446;9.988;2023-01-10T15:30:24;16.97;;;8.73;;
16387;SDS011;8303;53.446;9.988;2023-01-10T15:32:54;20.83;;;9.10;;
16387;SDS011;8303;53.446;9.988;2023-01-10T15:35:26;19.13;;;9.47;;
16387;SDS011;8303;53.446;9.988;2023-01-10T15:37:55;27.97;;;8.97;;
16387;SDS011;8303;53.446;9.988;2023-01-10T15:40:28;18.57;;;8.23;;
16387;SDS011;8303;53.446;9.988;2023-01-10T15:43:10;15.77;;;9.03;;
16387;SDS011;8303;53.446;9.988;2023-01-10T15:45:47;19.63;;;8.63;;
16387;SDS011;8303;53.446;9.988;2023-01-10T15:48:25;27.43;;;10.67;;
16387;SDS011;8303;53.446;9.988;2023-01-10T15:50:55;23.13;;;10.83;;
16387;SDS011;8303;53.446;9.988;2023-01-10T15:56:17;19.97;;;9.73;;
16387;SDS011;8303;53.446;9.988;2023-01-10T15:58:45;27.07;;;10.77;;
16387;SDS011;8303;53.446;9.988;2023-01-10T16:01:14;25.40;;;10.53;;
16387;SDS011;8303;53.446;9.988;2023-01-10T16:03:42;30.30;;;10.60;;
16387;SDS011;8303;53.446;9.988;2023-01-10T16:06:16;25.97;;;10.60;;
16387;SDS011;8303;53.446;9.988;2023-01-10T16:08:47;26.90;;;10.90;;
16387;SDS011;8303;53.446;9.988;2023-01-10T16:11:16;22.77;;;11.40;;
16387;SDS011;8303;53.446;9.988;2023-01-10T16:14:06;22.23;;;10.67;;
16387;SDS011;8303;53.446;9.988;2023-01-10T16:16:33;26.30;;;11.20;;
16387;SDS011;8303;53.446;9.988;2023-01-10T16:19:00;27.53;;;10.47;;
16387;SDS011;8303;53.446;9.988;2023-01-10T16:21:31;26.57;;;11.00;;
16387;SDS011;8303;53.446;9.988;2023-01-10T16:24:01;23.73;;;11.03;;
16387;SDS011;8303;53.446;9.988;2023-01-10T16:26:29;25.57;;;10.80;;
16387;SDS011;8303;53.446;9.988;2023-01-10T16:28:56;23.80;;;11.60;;
16387;SDS011;8303;53.446;9.988;2023-01-10T16:31:23;26.87;;;11.93;;
16387;SDS011;8303;53.446;9.988;2023-01-10T16:33:51;22.17;;;9.87;;
16387;SDS011;8303;53.446;9.988;2023-01-10T16:36:18;27.37;;;11.93;;
16387;SDS011;8303;53.446;9.988;2023-01-10T16:38:46;23.70;;;11.63;;
16387;SDS011;8303;53.446;9.988;2023-01-10T16:41:13;30.73;;;12.83;;
16387;SDS011;8303;53.446;9.988;2023-01-10T16:43:58;27.20;;;12.00;;
16387;SDS011;8303;53.446;9.988;2023-01-10T16:46:25;29.07;;;12.80;;
16387;SDS011;8303;53.446;9.988;2023-01-10T16:48:54;26.13;;;13.00;;
16387;SDS011;8303;53.446;9.988;2023-01-10T16:51:22;28.40;;;12.23;;
16387;SDS011;8303;53.446;9.988;2023-01-10T16:53:50;28.60;;;11.53;;
16387;SDS011;8303;53.446;9.988;2023-01-10T16:56:18;32.13;;;12.83;;
16387;SDS011;8303;53.446;9.988;2023-01-10T16:58:46;28.23;;;11.80;;
16387;SDS011;8303;53.446;9.988;2023-01-10T17:01:14;29.13;;;11.40;;
16387;SDS011;8303;53.446;9.988;2023-01-10T17:03:43;28.87;;;12.03;;
16387;SDS011;8303;53.446;9.988;2023-01-10T17:06:12;37.87;;;13.07;;
16387;SDS011;8303;53.446;9.988;2023-01-10T17:08:40;27.93;;;12.40;;
16387;SDS011;8303;53.446;9.988;2023-01-10T17:11:09;28.23;;;11.63;;
16387;SDS011;8303;53.446;9.988;2023-01-10T17:13:39;26.93;;;11.87;;
16387;SDS011;8303;53.446;9.988;2023-01-10T17:16:08;36.80;;;11.83;;
16387;SDS011;8303;53.446;9.988;2023-01-10T17:18:35;23.10;;;10.93;;
16387;SDS011;8303;53.446;9.988;2023-01-10T17:21:03;29.37;;;11.97;;
16387;SDS011;8303;53.446;9.988;2023-01-10T17:23:31;24.37;;;12.17;;
16387;SDS011;8303;53.446;9.988;2023-01-10T17:25:59;26.60;;;11.27;;
16387;SDS011;8303;53.446;9.988;2023-01-10T17:28:26;26.77;;;10.90;;
16387;SDS011;8303;53.446;9.988;2023-01-10T17:30:54;26.00;;;10.77;;
16387;SDS011;8303;53.446;9.988;2023-01-10T17:33:21;22.73;;;10.87;;
16387;SDS011;8303;53.446;9.988;2023-01-10T17:35:51;19.43;;;9.33;;
16387;SDS011;8303;53.446;9.988;2023-01-10T17:38:18;32.67;;;10.03;;
16387;SDS011;8303;53.446;9.988;2023-01-10T17:40:47;35.20;;;10.30;;
16387;SDS011;8303;53.446;9.988;2023-01-10T17:43:14;23.10;;;10.23;;
16387;SDS011;8303;53.446;9.988;2023-01-10T17:45:43;32.13;;;10.40;;
16387;SDS011;8303;53.446;9.988;2023-01-10T17:48:12;26.47;;;9.80;;
16387;SDS011;8303;53.446;9.988;2023-01-10T17:50:40;26.57;;;9.97;;
16387;SDS011;8303;53.446;9.988;2023-01-10T17:53:07;22.80;;;10.93;;
16387;SDS011;8303;53.446;9.988;2023-01-10T17:55:34;27.40;;;9.27;;
16387;SDS011;8303;53.446;9.988;2023-01-10T17:58:02;25.00;;;9.40;;
16387;SDS011;8303;53.446;9.988;2023-01-10T18:00:29;25.53;;;9.67;;
16387;SDS011;8303;53.446;9.988;2023-01-10T18:02:56;23.77;;;9.87;;
16387;SDS011;8303;53.446;9.988;2023-01-10T18:05:23;25.67;;;9.23;;
16387;SDS011;8303;53.446;9.988;2023-01-10T18:07:50;26.03;;;8.47;;
16387;SDS011;8303;53.446;9.988;2023-01-10T18:10:17;19.67;;;8.63;;
16387;SDS011;8303;53.446;9.988;2023-01-10T18:12:44;24.37;;;8.67;;
16387;SDS011;8303;53.446;9.988;2023-01-10T18:15:12;19.50;;;7.73;;
16387;SDS011;8303;53.446;9.988;2023-01-10T18:17:39;17.57;;;7.87;;
16387;SDS011;8303;53.446;9.988;2023-01-10T18:20:07;13.87;;;8.07;;
16387;SDS011;8303;53.446;9.988;2023-01-10T18:22:36;22.13;;;8.13;;
16387;SDS011;8303;53.446;9.988;2023-01-10T18:25:20;21.83;;;7.60;;
16387;SDS011;8303;53.446;9.988;2023-01-10T18:27:47;21.97;;;7.80;;
16387;SDS011;8303;53.446;9.988;2023-01-10T18:30:17;17.43;;;7.90;;
16387;SDS011;8303;53.446;9.988;2023-01-10T18:32:46;18.93;;;7.37;;
16387;SDS011;8303;53.446;9.988;2023-01-10T18:35:13;17.10;;;7.60;;
16387;SDS011;8303;53.446;9.988;2023-01-10T18:37:40;24.13;;;7.53;;
16387;SDS011;8303;53.446;9.988;2023-01-10T18:40:08;22.10;;;8.13;;
16387;SDS011;8303;53.446;9.988;2023-01-10T18:42:35;20.57;;;7.50;;
16387;SDS011;8303;53.446;9.988;2023-01-10T18:45:03;19.33;;;7.03;;
16387;SDS011;8303;53.446;9.988;2023-01-10T18:47:32;22.50;;;7.20;;
16387;SDS011;8303;53.446;9.988;2023-01-10T18:49:59;16.37;;;7.30;;
16387;SDS011;8303;53.446;9.988;2023-01-10T18:52:26;22.03;;;7.57;;
16387;SDS011;8303;53.446;9.988;2023-01-10T18:54:53;18.70;;;7.40;;
16387;SDS011;8303;53.446;9.988;2023-01-10T18:57:20;18.03;;;7.27;;
16387;SDS011;8303;53.446;9.988;2023-01-10T18:59:48;22.20;;;11.33;;
16387;SDS011;8303;53.446;9.988;2023-01-10T19:02:15;21.57;;;7.63;;
16387;SDS011;8303;53.446;9.988;2023-01-10T19:04:43;14.73;;;6.67;;
16387;SDS011;8303;53.446;9.988;2023-01-10T19:07:10;20.30;;;7.00;;
16387;SDS011;8303;53.446;9.988;2023-01-10T19:09:37;23.97;;;7.17;;
16387;SDS011;8303;53.446;9.988;2023-01-10T19:12:04;15.40;;;6.67;;
16387;SDS011;8303;53.446;9.988;2023-01-10T19:14:31;17.63;;;7.70;;
16387;SDS011;8303;53.446;9.988;2023-01-10T19:16:58;12.63;;;6.60;;
16387;SDS011;8303;53.446;9.988;2023-01-10T19:19:25;20.27;;;6.93;;
16387;SDS011;8303;53.446;9.988;2023-01-10T19:21:53;22.07;;;7.03;;
16387;SDS011;8303;53.446;9.988;2023-01-10T19:24:21;16.80;;;6.20;;
16387;SDS011;8303;53.446;9.988;2023-01-10T19:26:51;19.20;;;6.73;;
16387;SDS011;8303;53.446;9.988;2023-01-10T19:29:18;11.23;;;6.10;;
16387;SDS011;8303;53.446;9.988;2023-01-10T19:31:46;24.83;;;7.03;;
16387;SDS011;8303;53.446;9.988;2023-01-10T19:34:14;14.37;;;6.77;;
16387;SDS011;8303;53.446;9.988;2023-01-10T19:36:41;16.33;;;5.60;;
16387;SDS011;8303;53.446;9.988;2023-01-10T19:39:11;18.67;;;5.80;;
16387;SDS011;8303;53.446;9.988;2023-01-10T19:41:38;16.80;;;6.80;;
16387;SDS011;8303;53.446;9.988;2023-01-10T19:44:07;16.10;;;6.47;;
16387;SDS011;8303;53.446;9.988;2023-01-10T19:46:36;11.73;;;4.97;;
16387;SDS011;8303;53.446;9.988;2023-01-10T19:49:05;12.80;;;5.37;;
16387;SDS011;8303;53.446;9.988;2023-01-10T19:51:33;16.33;;;5.73;;
16387;SDS011;8303;53.446;9.988;2023-01-10T19:54:01;19.77;;;6.27;;
16387;SDS011;8303;53.446;9.988;2023-01-10T19:56:29;20.77;;;5.70;;
16387;SDS011;8303;53.446;9.988;2023-01-10T19:58:57;14.67;;;7.40;;
16387;SDS011;8303;53.446;9.988;2023-01-10T20:01:24;16.07;;;5.40;;
16387;SDS011;8303;53.446;9.988;2023-01-10T20:03:54;13.13;;;7.97;;
16387;SDS011;8303;53.446;9.988;2023-01-10T20:06:22;17.17;;;9.83;;
16387;SDS011;8303;53.446;9.988;2023-01-10T20:08:51;8.00;;;4.53;;
16387;SDS011;8303;53.446;9.988;2023-01-10T20:11:19;19.43;;;5.50;;
16387;SDS011;8303;53.446;9.988;2023-01-10T20:13:48;17.13;;;5.67;;
16387;SDS011;8303;53.446;9.988;2023-01-10T20:16:16;15.63;;;5.10;;
16387;SDS011;8303;53.446;9.988;2023-01-10T20:18:44;12.13;;;5.67;;
16387;SDS011;8303;53.446;9.988;2023-01-10T20:21:13;18.07;;;5.77;;
16387;SDS011;8303;53.446;9.988;2023-01-10T20:23:41;16.20;;;5.90;;
16387;SDS011;8303;53.446;9.988;2023-01-10T20:26:09;12.00;;;5.50;;
16387;SDS011;8303;53.446;9.988;2023-01-10T20:28:39;15.77;;;5.27;;
16387;SDS011;8303;53.446;9.988;2023-01-10T20:31:08;16.20;;;5.07;;
16387;SDS011;8303;53.446;9.988;2023-01-10T20:33:37;10.17;;;4.77;;
16387;SDS011;8303;53.446;9.988;2023-01-10T20:36:05;12.67;;;4.77;;
16387;SDS011;8303;53.446;9.988;2023-01-10T20:38:34;19.70;;;5.70;;
16387;SDS011;8303;53.446;9.988;2023-01-10T20:41:02;8.03;;;4.13;;
16387;SDS011;8303;53.446;9.988;2023-01-10T20:43:30;15.53;;;5.70;;
16387;SDS011;8303;53.446;9.988;2023-01-10T20:46:02;12.50;;;5.27;;
16387;SDS011;8303;53.446;9.988;2023-01-10T20:48:31;12.30;;;5.40;;
16387;SDS011;8303;53.446;9.988;2023-01-10T20:50:58;17.17;;;4.67;;
16387;SDS011;8303;53.446;9.988;2023-01-10T20:53:25;14.23;;;4.13;;
16387;SDS011;8303;53.446;9.988;2023-01-10T20:55:52;11.33;;;5.30;;
16387;SDS011;8303;53.446;9.988;2023-01-10T20:58:19;15.90;;;4.30;;
16387;SDS011;8303;53.446;9.988;2023-01-10T21:00:46;12.60;;;5.33;;
16387;SDS011;8303;53.446;9.988;2023-01-10T21:03:13;15.97;;;5.17;;